sensor_id;sensor_type;location;lat;lon;timestamp;P1;durP1;ratioP1;P2;durP2;ratioP2
239;SDS011;104;53.590;10.004;2022-09-28T00:01:43;7.13;;;2.70;;
239;SDS011;104;53.590;10.004;2022-09-28T00:04:10;2.90;;;2.70;;
239;SDS011;104;53.590;10.004;2022-09-28T00:06:38;3.53;;;3.00;;
239;SDS011;104;53.590;10.004;2022-09-28T00:09:05;2.87;;;2.53;;
239;SDS011;104;53.590;10.004;2022-09-28T00:11:32;3.43;;;3.10;;
239;SDS011;104;53.590;10.004;2022-09-28T00:14:01;3.40;;;2.70;;
239;SDS011;104;53.590;10.004;2022-09-28T00:16:30;3.33;;;2.80;;
239;SDS011;104;53.590;10.004;2022-09-28T00:18:58;3.80;;;3.07;;
239;SDS011;104;53.590;10.004;2022-09-28T00:21:26;2.93;;;2.53;;
239;SDS011;104;53.590;10.004;2022-09-28T00:23:56;6.13;;;2.90;;
239;SDS011;104;53.590;10.004;2022-09-28T00:26:44;3.10;;;2.43;;
239;SDS011;104;53.590;10.004;2022-09-28T00:29:15;2.70;;;2.50;;
239;SDS011;104;53.590;10.004;2022-09-28T00:31:47;5.33;;;2.70;;
239;SDS011;104;53.590;10.004;2022-09-28T00:34:17;7.53;;;2.40;;
239;SDS011;104;53.590;10.004;2022-09-28T00:36:45;2.90;;;2.70;;
239;SDS011;104;53.590;10.004;2022-09-28T00:39:13;4.10;;;2.97;;
239;SDS011;104;53.590;10.004;2022-09-28T00:41:41;2.70;;;2.33;;
239;SDS011;104;53.590;10.004;2022-09-28T00:47:13;3.03;;;2.40;;
239;SDS011;104;53.590;10.004;2022-09-28T00:49:51;2.80;;;2.60;;
239;SDS011;104;53.590;10.004;2022-09-28T00:52:23;2.80;;;2.60;;
239;SDS011;104;53.590;10.004;2022-09-28T00:54:55;3.00;;;2.70;;
239;SDS011;104;53.590;10.004;2022-09-28T00:57:25;2.87;;;2.70;;
239;SDS011;104;53.590;10.004;2022-09-28T00:59:55;2.83;;;2.60;;
239;SDS011;104;53.590;10.004;2022-09-28T01:02:24;3.93;;;2.30;;
239;SDS011;104;53.590;10.004;2022-09-28T01:04:51;3.87;;;2.57;;
239;SDS011;104;53.590;10.004;2022-09-28T01:07:18;3.60;;;2.67;;
239;SDS011;104;53.590;10.004;2022-09-28T01:09:47;5.13;;;2.57;;
239;SDS011;104;53.590;10.004;2022-09-28T01:12:14;2.80;;;2.60;;
239;SDS011;104;53.590;10.004;2022-09-28T01:14:41;4.17;;;2.57;;
239;SDS011;104;53.590;10.004;2022-09-28T01:17:12;3.20;;;2.80;;
239;SDS011;104;53.590;10.004;2022-09-28T01:23:07;3.00;;;2.80;;
239;SDS011;104;53.590;10.004;2022-09-28T01:25:50;2.90;;;2.70;;
239;SDS011;104;53.590;10.004;2022-09-28T01:28:22;2.63;;;2.43;;
239;SDS011;104;53.590;10.004;2022-09-28T01:30:55;2.67;;;2.47;;
239;SDS011;104;53.590;10.004;2022-09-28T01:33:34;2.60;;;2.40;;
239;SDS011;104;53.590;10.004;2022-09-28T01:36:05;2.60;;;2.40;;
239;SDS011;104;53.590;10.004;2022-09-28T01:38:36;2.80;;;2.60;;
239;SDS011;104;53.590;10.004;2022-09-28T01:41:08;3.70;;;2.70;;
239;SDS011;104;53.590;10.004;2022-09-28T01:43:37;5.93;;;2.63;;
239;SDS011;104;53.590;10.004;2022-09-28T01:46:10;3.73;;;2.70;;
239;SDS011;104;53.590;10.004;2022-09-28T01:48:40;4.40;;;2.70;;
239;SDS011;104;53.590;10.004;2022-09-28T01:51:13;5.07;;;3.50;;
239;SDS011;104;53.590;10.004;2022-09-28T01:53:45;3.20;;;3.00;;
239;SDS011;104;53.590;10.004;2022-09-28T01:56:17;3.07;;;2.87;;
239;SDS011;104;53.590;10.004;2022-09-28T01:58:52;5.30;;;3.07;;
239;SDS011;104;53.590;10.004;2022-09-28T02:01:23;3.00;;;2.80;;
239;SDS011;104;53.590;10.004;2022-09-28T02:03:55;3.00;;;2.90;;
239;SDS011;104;53.590;10.004;2022-09-28T02:06:26;4.90;;;2.80;;
239;SDS011;104;53.590;10.004;2022-09-28T02:09:02;3.87;;;2.63;;
239;SDS011;104;53.590;10.004;2022-09-28T02:11:34;4.90;;;2.77;;
239;SDS011;104;53.590;10.004;2022-09-28T02:14:05;3.60;;;2.60;;
239;SDS011;104;53.590;10.004;2022-09-28T02:16:36;2.43;;;2.20;;
239;SDS011;104;53.590;10.004;2022-09-28T02:19:06;3.20;;;2.63;;
239;SDS011;104;53.590;10.004;2022-09-28T02:21:38;6.80;;;2.77;;
239;SDS011;104;53.590;10.004;2022-09-28T02:24:10;3.20;;;2.60;;
239;SDS011;104;53.590;10.004;2022-09-28T02:26:42;4.00;;;2.73;;
239;SDS011;104;53.590;10.004;2022-09-28T02:29:14;3.50;;;3.10;;
239;SDS011;104;53.590;10.004;2022-09-28T02:31:42;5.20;;;2.90;;
239;SDS011;104;53.590;10.004;2022-09-28T02:34:09;2.93;;;2.70;;
239;SDS011;104;53.590;10.004;2022-09-28T02:36:36;8.07;;;3.20;;
239;SDS011;104;53.590;10.004;2022-09-28T02:39:03;3.70;;;3.30;;
239;SDS011;104;53.590;10.004;2022-09-28T02:41:34;7.17;;;2.97;;
239;SDS011;104;53.590;10.004;2022-09-28T02:44:14;3.23;;;2.90;;
239;SDS011;104;53.590;10.004;2022-09-28T02:46:54;4.73;;;3.07;;
239;SDS011;104;53.590;10.004;2022-09-28T02:49:26;8.83;;;3.47;;
239;SDS011;104;53.590;10.004;2022-09-28T02:52:07;3.90;;;3.40;;
239;SDS011;104;53.590;10.004;2022-09-28T02:54:54;4.63;;;2.97;;
239;SDS011;104;53.590;10.004;2022-09-28T02:57:39;2.93;;;2.73;;
239;SDS011;104;53.590;10.004;2022-09-28T03:00:16;2.77;;;2.57;;
239;SDS011;104;53.590;10.004;2022-09-28T03:02:47;4.23;;;3.07;;
239;SDS011;104;53.590;10.004;2022-09-28T03:05:21;3.43;;;2.77;;
239;SDS011;104;53.590;10.004;2022-09-28T03:07:56;5.67;;;2.97;;
239;SDS011;104;53.590;10.004;2022-09-28T03:10:27;3.23;;;2.90;;
239;SDS011;104;53.590;10.004;2022-09-28T03:13:00;5.27;;;3.30;;
239;SDS011;104;53.590;10.004;2022-09-28T03:15:31;5.10;;;3.10;;
239;SDS011;104;53.590;10.004;2022-09-28T03:17:59;3.60;;;3.20;;
239;SDS011;104;53.590;10.004;2022-09-28T03:20:27;5.97;;;3.10;;
239;SDS011;104;53.590;10.004;2022-09-28T03:22:55;3.70;;;2.90;;
239;SDS011;104;53.590;10.004;2022-09-28T03:25:23;4.00;;;3.20;;
239;SDS011;104;53.590;10.004;2022-09-28T03:27:50;4.70;;;3.60;;
239;SDS011;104;53.590;10.004;2022-09-28T03:30:17;5.57;;;3.63;;
239;SDS011;104;53.590;10.004;2022-09-28T03:32:51;5.20;;;3.17;;
239;SDS011;104;53.590;10.004;2022-09-28T03:35:22;4.20;;;3.70;;
239;SDS011;104;53.590;10.004;2022-09-28T03:37:52;3.67;;;3.47;;
239;SDS011;104;53.590;10.004;2022-09-28T03:40:20;3.93;;;3.60;;
239;SDS011;104;53.590;10.004;2022-09-28T03:42:47;5.57;;;3.70;;
239;SDS011;104;53.590;10.004;2022-09-28T03:45:14;5.57;;;3.90;;
239;SDS011;104;53.590;10.004;2022-09-28T03:47:43;5.23;;;4.40;;
239;SDS011;104;53.590;10.004;2022-09-28T03:50:13;3.67;;;3.47;;
239;SDS011;104;53.590;10.004;2022-09-28T03:52:41;6.67;;;4.07;;
239;SDS011;104;53.590;10.004;2022-09-28T03:55:08;5.63;;;4.13;;
239;SDS011;104;53.590;10.004;2022-09-28T03:57:35;3.50;;;3.30;;
239;SDS011;104;53.590;10.004;2022-09-28T04:00:03;5.87;;;3.77;;
239;SDS011;104;53.590;10.004;2022-09-28T04:02:30;4.37;;;3.83;;
239;SDS011;104;53.590;10.004;2022-09-28T04:04:58;3.80;;;3.53;;
239;SDS011;104;53.590;10.004;2022-09-28T04:07:27;3.47;;;3.27;;
239;SDS011;104;53.590;10.004;2022-09-28T04:09:55;5.30;;;4.40;;
239;SDS011;104;53.590;10.004;2022-09-28T04:12:23;11.73;;;3.60;;
239;SDS011;104;53.590;10.004;2022-09-28T04:14:50;5.40;;;3.63;;
239;SDS011;104;53.590;10.004;2022-09-28T04:17:17;3.70;;;3.50;;
239;SDS011;104;53.590;10.004;2022-09-28T04:19:44;4.00;;;3.53;;
239;SDS011;104;53.590;10.004;2022-09-28T04:22:11;4.47;;;3.17;;
239;SDS011;104;53.590;10.004;2022-09-28T04:24:40;5.83;;;3.43;;
239;SDS011;104;53.590;10.004;2022-09-28T04:27:08;3.30;;;3.03;;
239;SDS011;104;53.590;10.004;2022-09-28T04:29:53;5.27;;;3.37;;
239;SDS011;104;53.590;10.004;2022-09-28T04:32:20;3.43;;;3.23;;
239;SDS011;104;53.590;10.004;2022-09-28T04:34:47;7.90;;;3.40;;
239;SDS011;104;53.590;10.004;2022-09-28T04:37:15;4.47;;;3.40;;
239;SDS011;104;53.590;10.004;2022-09-28T04:39:44;3.87;;;3.70;;
239;SDS011;104;53.590;10.004;2022-09-28T04:42:11;4.17;;;3.93;;
239;SDS011;104;53.590;10.004;2022-09-28T04:44:38;5.03;;;4.63;;
239;SDS011;104;53.590;10.004;2022-09-28T04:47:05;6.50;;;3.90;;
239;SDS011;104;53.590;10.004;2022-09-28T04:49:32;4.43;;;4.17;;
239;SDS011;104;53.590;10.004;2022-09-28T04:52:01;5.27;;;4.43;;
239;SDS011;104;53.590;10.004;2022-09-28T04:54:28;7.13;;;4.27;;
239;SDS011;104;53.590;10.004;2022-09-28T04:56:57;5.67;;;4.67;;
239;SDS011;104;53.590;10.004;2022-09-28T04:59:25;5.47;;;4.37;;
239;SDS011;104;53.590;10.004;2022-09-28T05:01:52;4.40;;;4.10;;
239;SDS011;104;53.590;10.004;2022-09-28T05:04:19;8.20;;;5.20;;
239;SDS011;104;53.590;10.004;2022-09-28T05:06:46;5.00;;;4.63;;
239;SDS011;104;53.590;10.004;2022-09-28T05:09:13;6.13;;;4.77;;
239;SDS011;104;53.590;10.004;2022-09-28T05:11:41;5.93;;;4.90;;
239;SDS011;104;53.590;10.004;2022-09-28T05:14:10;6.70;;;4.90;;
239;SDS011;104;53.590;10.004;2022-09-28T05:16:37;6.50;;;4.90;;
239;SDS011;104;53.590;10.004;2022-09-28T05:19:04;7.50;;;5.40;;
239;SDS011;104;53.590;10.004;2022-09-28T05:21:32;14.20;;;5.93;;
239;SDS011;104;53.590;10.004;2022-09-28T05:23:59;8.00;;;5.13;;
239;SDS011;104;53.590;10.004;2022-09-28T05:26:31;5.80;;;4.90;;
239;SDS011;104;53.590;10.004;2022-09-28T05:28:58;7.07;;;5.43;;
239;SDS011;104;53.590;10.004;2022-09-28T05:31:27;7.30;;;5.27;;
239;SDS011;104;53.590;10.004;2022-09-28T05:33:54;8.33;;;5.20;;
239;SDS011;104;53.590;10.004;2022-09-28T05:36:21;9.73;;;5.37;;
239;SDS011;104;53.590;10.004;2022-09-28T05:38:50;5.47;;;4.97;;
239;SDS011;104;53.590;10.004;2022-09-28T05:41:18;5.90;;;5.40;;
239;SDS011;104;53.590;10.004;2022-09-28T05:43:45;8.10;;;6.13;;
239;SDS011;104;53.590;10.004;2022-09-28T05:46:12;9.73;;;6.20;;
239;SDS011;104;53.590;10.004;2022-09-28T05:48:40;10.27;;;5.80;;
239;SDS011;104;53.590;10.004;2022-09-28T05:51:07;7.67;;;5.73;;
239;SDS011;104;53.590;10.004;2022-09-28T05:53:35;8.23;;;6.10;;
239;SDS011;104;53.590;10.004;2022-09-28T05:56:02;6.80;;;5.20;;
239;SDS011;104;53.590;10.004;2022-09-28T05:58:29;6.70;;;5.60;;
239;SDS011;104;53.590;10.004;2022-09-28T06:00:58;12.53;;;5.40;;
239;SDS011;104;53.590;10.004;2022-09-28T06:03:26;10.20;;;5.70;;
239;SDS011;104;53.590;10.004;2022-09-28T06:05:55;20.70;;;4.63;;
239;SDS011;104;53.590;10.004;2022-09-28T06:08:27;13.57;;;4.33;;
239;SDS011;104;53.590;10.004;2022-09-28T06:10:57;13.03;;;4.40;;
239;SDS011;104;53.590;10.004;2022-09-28T06:13:25;12.27;;;4.10;;
239;SDS011;104;53.590;10.004;2022-09-28T06:15:53;16.43;;;4.67;;
239;SDS011;104;53.590;10.004;2022-09-28T06:18:20;14.37;;;5.00;;
239;SDS011;104;53.590;10.004;2022-09-28T06:20:47;11.90;;;4.73;;
239;SDS011;104;53.590;10.004;2022-09-28T06:23:16;7.80;;;3.90;;
239;SDS011;104;53.590;10.004;2022-09-28T06:25:43;8.77;;;4.63;;
239;SDS011;104;53.590;10.004;2022-09-28T06:28:11;16.53;;;4.53;;
239;SDS011;104;53.590;10.004;2022-09-28T06:30:39;9.37;;;4.63;;
239;SDS011;104;53.590;10.004;2022-09-28T06:33:09;8.93;;;5.30;;
239;SDS011;104;53.590;10.004;2022-09-28T06:35:37;12.20;;;4.23;;
239;SDS011;104;53.590;10.004;2022-09-28T06:38:05;10.60;;;4.47;;
239;SDS011;104;53.590;10.004;2022-09-28T06:40:34;6.97;;;4.10;;
239;SDS011;104;53.590;10.004;2022-09-28T06:43:02;10.20;;;5.27;;
239;SDS011;104;53.590;10.004;2022-09-28T06:45:34;8.03;;;4.30;;
239;SDS011;104;53.590;10.004;2022-09-28T06:48:02;7.93;;;4.53;;
239;SDS011;104;53.590;10.004;2022-09-28T06:50:30;8.87;;;4.17;;
239;SDS011;104;53.590;10.004;2022-09-28T06:53:00;6.83;;;2.80;;
239;SDS011;104;53.590;10.004;2022-09-28T06:55:39;3.33;;;2.60;;
239;SDS011;104;53.590;10.004;2022-09-28T06:58:08;3.00;;;2.73;;
239;SDS011;104;53.590;10.004;2022-09-28T07:00:37;5.60;;;2.30;;
239;SDS011;104;53.590;10.004;2022-09-28T07:03:05;5.60;;;2.33;;
239;SDS011;104;53.590;10.004;2022-09-28T07:05:34;2.93;;;2.50;;
239;SDS011;104;53.590;10.004;2022-09-28T07:08:02;5.50;;;2.40;;
239;SDS011;104;53.590;10.004;2022-09-28T07:10:29;3.83;;;2.40;;
239;SDS011;104;53.590;10.004;2022-09-28T07:12:58;5.70;;;2.50;;
239;SDS011;104;53.590;10.004;2022-09-28T07:15:27;3.70;;;2.70;;
239;SDS011;104;53.590;10.004;2022-09-28T07:17:55;3.80;;;2.80;;
239;SDS011;104;53.590;10.004;2022-09-28T07:20:23;2.37;;;2.17;;
239;SDS011;104;53.590;10.004;2022-09-28T07:22:54;5.20;;;2.50;;
239;SDS011;104;53.590;10.004;2022-09-28T07:25:21;2.90;;;2.30;;
239;SDS011;104;53.590;10.004;2022-09-28T07:27:49;2.63;;;2.23;;
239;SDS011;104;53.590;10.004;2022-09-28T07:30:22;4.00;;;2.50;;
239;SDS011;104;53.590;10.004;2022-09-28T07:32:51;2.50;;;2.30;;
239;SDS011;104;53.590;10.004;2022-09-28T07:35:38;3.47;;;2.30;;
239;SDS011;104;53.590;10.004;2022-09-28T07:38:16;4.20;;;3.30;;
239;SDS011;104;53.590;10.004;2022-09-28T07:40:49;4.07;;;2.50;;
239;SDS011;104;53.590;10.004;2022-09-28T07:43:37;2.80;;;2.60;;
239;SDS011;104;53.590;10.004;2022-09-28T07:46:10;3.00;;;2.50;;
239;SDS011;104;53.590;10.004;2022-09-28T07:48:43;3.40;;;2.70;;
239;SDS011;104;53.590;10.004;2022-09-28T07:51:23;2.90;;;2.70;;
239;SDS011;104;53.590;10.004;2022-09-28T07:54:04;4.90;;;3.47;;
239;SDS011;104;53.590;10.004;2022-09-28T07:56:32;5.93;;;3.00;;
239;SDS011;104;53.590;10.004;2022-09-28T07:59:21;4.77;;;2.90;;
239;SDS011;104;53.590;10.004;2022-09-28T08:01:57;6.27;;;3.07;;
239;SDS011;104;53.590;10.004;2022-09-28T08:04:29;4.90;;;3.07;;
239;SDS011;104;53.590;10.004;2022-09-28T08:09:50;3.30;;;3.10;;
239;SDS011;104;53.590;10.004;2022-09-28T08:12:17;3.17;;;2.97;;
239;SDS011;104;53.590;10.004;2022-09-28T08:14:46;4.03;;;3.67;;
239;SDS011;104;53.590;10.004;2022-09-28T08:17:19;3.43;;;3.23;;
239;SDS011;104;53.590;10.004;2022-09-28T08:20:01;5.33;;;3.20;;
239;SDS011;104;53.590;10.004;2022-09-28T08:22:46;4.60;;;3.53;;
239;SDS011;104;53.590;10.004;2022-09-28T08:25:26;3.53;;;3.33;;
239;SDS011;104;53.590;10.004;2022-09-28T08:27:53;6.40;;;3.40;;
239;SDS011;104;53.590;10.004;2022-09-28T08:30:21;4.73;;;3.20;;
239;SDS011;104;53.590;10.004;2022-09-28T08:32:49;3.60;;;3.43;;
239;SDS011;104;53.590;10.004;2022-09-28T08:35:16;3.40;;;3.20;;
239;SDS011;104;53.590;10.004;2022-09-28T08:37:48;6.40;;;3.80;;
239;SDS011;104;53.590;10.004;2022-09-28T08:40:17;4.47;;;3.43;;
239;SDS011;104;53.590;10.004;2022-09-28T08:42:48;3.33;;;3.20;;
239;SDS011;104;53.590;10.004;2022-09-28T08:45:20;5.60;;;3.40;;
239;SDS011;104;53.590;10.004;2022-09-28T08:47:53;3.33;;;3.13;;
239;SDS011;104;53.590;10.004;2022-09-28T08:50:46;3.60;;;3.40;;
239;SDS011;104;53.590;10.004;2022-09-28T08:53:24;3.10;;;2.90;;
239;SDS011;104;53.590;10.004;2022-09-28T08:56:00;3.00;;;2.80;;
239;SDS011;104;53.590;10.004;2022-09-28T08:58:30;3.73;;;3.20;;
239;SDS011;104;53.590;10.004;2022-09-28T09:01:01;2.83;;;2.63;;
239;SDS011;104;53.590;10.004;2022-09-28T09:03:34;2.50;;;2.30;;
239;SDS011;104;53.590;10.004;2022-09-28T09:06:04;2.90;;;2.70;;
239;SDS011;104;53.590;10.004;2022-09-28T09:08:45;2.97;;;2.77;;
239;SDS011;104;53.590;10.004;2022-09-28T09:11:28;3.00;;;2.80;;
239;SDS011;104;53.590;10.004;2022-09-28T09:17:02;3.10;;;2.90;;
239;SDS011;104;53.590;10.004;2022-09-28T09:19:41;3.73;;;3.30;;
239;SDS011;104;53.590;10.004;2022-09-28T09:22:15;3.30;;;3.10;;
239;SDS011;104;53.590;10.004;2022-09-28T09:24:50;3.30;;;3.10;;
239;SDS011;104;53.590;10.004;2022-09-28T09:27:36;3.33;;;3.13;;
239;SDS011;104;53.590;10.004;2022-09-28T09:30:10;3.40;;;2.93;;
239;SDS011;104;53.590;10.004;2022-09-28T09:32:46;2.80;;;2.60;;
239;SDS011;104;53.590;10.004;2022-09-28T09:38:33;2.93;;;2.67;;
239;SDS011;104;53.590;10.004;2022-09-28T09:41:18;8.93;;;2.30;;
239;SDS011;104;53.590;10.004;2022-09-28T09:43:56;2.77;;;2.50;;
239;SDS011;104;53.590;10.004;2022-09-28T09:46:33;3.80;;;2.37;;
239;SDS011;104;53.590;10.004;2022-09-28T09:49:05;2.73;;;2.20;;
239;SDS011;104;53.590;10.004;2022-09-28T09:51:43;2.33;;;2.20;;
239;SDS011;104;53.590;10.004;2022-09-28T09:54:16;2.93;;;2.50;;
239;SDS011;104;53.590;10.004;2022-09-28T09:56:47;3.57;;;2.20;;
239;SDS011;104;53.590;10.004;2022-09-28T09:59:19;3.17;;;2.30;;
239;SDS011;104;53.590;10.004;2022-09-28T10:01:50;2.50;;;2.30;;
239;SDS011;104;53.590;10.004;2022-09-28T10:04:20;2.17;;;2.00;;
239;SDS011;104;53.590;10.004;2022-09-28T10:06:51;6.87;;;2.40;;
239;SDS011;104;53.590;10.004;2022-09-28T10:09:25;2.20;;;2.00;;
239;SDS011;104;53.590;10.004;2022-09-28T10:11:55;6.40;;;2.33;;
239;SDS011;104;53.590;10.004;2022-09-28T10:14:23;2.30;;;2.10;;
239;SDS011;104;53.590;10.004;2022-09-28T10:16:51;4.33;;;2.30;;
239;SDS011;104;53.590;10.004;2022-09-28T10:19:23;4.17;;;2.40;;
239;SDS011;104;53.590;10.004;2022-09-28T10:21:56;2.70;;;2.20;;
239;SDS011;104;53.590;10.004;2022-09-28T10:24:30;4.10;;;2.67;;
239;SDS011;104;53.590;10.004;2022-09-28T10:27:02;2.50;;;2.30;;
239;SDS011;104;53.590;10.004;2022-09-28T10:29:36;3.20;;;2.93;;
239;SDS011;104;53.590;10.004;2022-09-28T10:32:16;3.97;;;2.40;;
239;SDS011;104;53.590;10.004;2022-09-28T10:34:45;2.60;;;2.43;;
239;SDS011;104;53.590;10.004;2022-09-28T10:37:14;2.87;;;2.67;;
239;SDS011;104;53.590;10.004;2022-09-28T10:39:44;2.90;;;2.70;;
239;SDS011;104;53.590;10.004;2022-09-28T10:42:19;3.77;;;2.53;;
239;SDS011;104;53.590;10.004;2022-09-28T10:44:50;2.83;;;2.70;;
239;SDS011;104;53.590;10.004;2022-09-28T10:47:21;2.70;;;2.50;;
239;SDS011;104;53.590;10.004;2022-09-28T10:49:50;2.73;;;2.50;;
239;SDS011;104;53.590;10.004;2022-09-28T10:55:23;7.40;;;3.93;;
239;SDS011;104;53.590;10.004;2022-09-28T10:57:52;2.70;;;2.50;;
239;SDS011;104;53.590;10.004;2022-09-28T11:00:30;3.80;;;2.73;;
239;SDS011;104;53.590;10.004;2022-09-28T11:02:59;4.90;;;2.67;;
239;SDS011;104;53.590;10.004;2022-09-28T11:05:26;2.93;;;2.70;;
239;SDS011;104;53.590;10.004;2022-09-28T11:07:56;2.60;;;2.40;;
239;SDS011;104;53.590;10.004;2022-09-28T11:10:28;2.80;;;2.60;;
239;SDS011;104;53.590;10.004;2022-09-28T11:12:57;2.90;;;2.70;;
239;SDS011;104;53.590;10.004;2022-09-28T11:15:26;5.23;;;2.87;;
239;SDS011;104;53.590;10.004;2022-09-28T11:17:56;3.90;;;3.07;;
239;SDS011;104;53.590;10.004;2022-09-28T11:20:49;3.70;;;3.20;;
239;SDS011;104;53.590;10.004;2022-09-28T11:23:19;6.13;;;3.63;;
239;SDS011;104;53.590;10.004;2022-09-28T11:25:54;4.67;;;3.53;;
239;SDS011;104;53.590;10.004;2022-09-28T11:28:29;3.03;;;2.83;;
239;SDS011;104;53.590;10.004;2022-09-28T11:30:57;3.60;;;2.83;;
239;SDS011;104;53.590;10.004;2022-09-28T11:33:27;2.90;;;2.70;;
239;SDS011;104;53.590;10.004;2022-09-28T11:35:59;3.07;;;2.80;;
239;SDS011;104;53.590;10.004;2022-09-28T11:38:43;5.20;;;3.23;;
239;SDS011;104;53.590;10.004;2022-09-28T11:41:35;5.80;;;3.17;;
239;SDS011;104;53.590;10.004;2022-09-28T11:44:17;4.57;;;3.10;;
239;SDS011;104;53.590;10.004;2022-09-28T11:46:52;4.90;;;2.97;;
239;SDS011;104;53.590;10.004;2022-09-28T11:49:28;4.43;;;2.77;;
239;SDS011;104;53.590;10.004;2022-09-28T11:52:00;4.33;;;2.77;;
239;SDS011;104;53.590;10.004;2022-09-28T11:54:35;4.57;;;2.90;;
239;SDS011;104;53.590;10.004;2022-09-28T11:57:07;3.27;;;3.07;;
239;SDS011;104;53.590;10.004;2022-09-28T11:59:43;2.80;;;2.60;;
239;SDS011;104;53.590;10.004;2022-09-28T12:02:19;5.17;;;3.10;;
239;SDS011;104;53.590;10.004;2022-09-28T12:04:51;6.07;;;2.90;;
239;SDS011;104;53.590;10.004;2022-09-28T12:07:23;3.77;;;3.00;;
239;SDS011;104;53.590;10.004;2022-09-28T12:09:54;4.17;;;2.90;;
239;SDS011;104;53.590;10.004;2022-09-28T12:12:28;3.50;;;3.23;;
239;SDS011;104;53.590;10.004;2022-09-28T12:15:00;4.43;;;3.13;;
239;SDS011;104;53.590;10.004;2022-09-28T12:17:31;4.90;;;2.77;;
239;SDS011;104;53.590;10.004;2022-09-28T12:20:06;5.67;;;3.40;;
239;SDS011;104;53.590;10.004;2022-09-28T12:22:42;8.30;;;3.33;;
239;SDS011;104;53.590;10.004;2022-09-28T12:25:15;5.20;;;3.00;;
239;SDS011;104;53.590;10.004;2022-09-28T12:27:47;2.77;;;2.57;;
239;SDS011;104;53.590;10.004;2022-09-28T12:30:18;3.33;;;2.70;;
239;SDS011;104;53.590;10.004;2022-09-28T12:32:47;3.20;;;3.03;;
239;SDS011;104;53.590;10.004;2022-09-28T12:35:19;4.27;;;2.40;;
239;SDS011;104;53.590;10.004;2022-09-28T12:38:00;6.33;;;2.70;;
239;SDS011;104;53.590;10.004;2022-09-28T12:40:48;4.67;;;2.73;;
239;SDS011;104;53.590;10.004;2022-09-28T12:43:30;3.97;;;2.70;;
239;SDS011;104;53.590;10.004;2022-09-28T12:49:15;3.10;;;2.90;;
239;SDS011;104;53.590;10.004;2022-09-28T12:51:48;4.13;;;2.63;;
239;SDS011;104;53.590;10.004;2022-09-28T12:54:24;2.90;;;2.70;;
239;SDS011;104;53.590;10.004;2022-09-28T12:57:17;3.27;;;2.87;;
239;SDS011;104;53.590;10.004;2022-09-28T12:59:57;3.80;;;2.87;;
239;SDS011;104;53.590;10.004;2022-09-28T13:02:35;3.20;;;3.00;;
239;SDS011;104;53.590;10.004;2022-09-28T13:05:41;6.23;;;3.00;;
239;SDS011;104;53.590;10.004;2022-09-28T13:08:24;3.70;;;3.20;;
239;SDS011;104;53.590;10.004;2022-09-28T13:11:01;3.97;;;3.03;;
239;SDS011;104;53.590;10.004;2022-09-28T13:13:37;4.87;;;3.10;;
239;SDS011;104;53.590;10.004;2022-09-28T13:16:13;3.70;;;3.00;;
239;SDS011;104;53.590;10.004;2022-09-28T13:18:46;3.17;;;2.97;;
239;SDS011;104;53.590;10.004;2022-09-28T13:21:21;3.30;;;3.10;;
239;SDS011;104;53.590;10.004;2022-09-28T13:23:54;6.23;;;3.77;;
239;SDS011;104;53.590;10.004;2022-09-28T13:26:26;4.23;;;3.47;;
239;SDS011;104;53.590;10.004;2022-09-28T13:28:59;3.10;;;2.90;;
239;SDS011;104;53.590;10.004;2022-09-28T13:31:29;4.53;;;3.30;;
239;SDS011;104;53.590;10.004;2022-09-28T13:33:59;7.80;;;3.80;;
239;SDS011;104;53.590;10.004;2022-09-28T13:36:38;6.17;;;3.83;;
239;SDS011;104;53.590;10.004;2022-09-28T13:42:23;4.50;;;3.30;;
239;SDS011;104;53.590;10.004;2022-09-28T13:45:09;6.27;;;2.73;;
239;SDS011;104;53.590;10.004;2022-09-28T13:48:01;6.20;;;3.17;;
239;SDS011;104;53.590;10.004;2022-09-28T13:50:38;3.07;;;2.80;;
239;SDS011;104;53.590;10.004;2022-09-28T13:53:33;3.20;;;3.00;;
239;SDS011;104;53.590;10.004;2022-09-28T13:56:16;3.30;;;3.10;;
239;SDS011;104;53.590;10.004;2022-09-28T13:58:51;7.63;;;3.50;;
239;SDS011;104;53.590;10.004;2022-09-28T14:01:25;3.93;;;3.20;;
239;SDS011;104;53.590;10.004;2022-09-28T14:04:09;6.70;;;3.80;;
239;SDS011;104;53.590;10.004;2022-09-28T14:06:40;5.37;;;3.53;;
239;SDS011;104;53.590;10.004;2022-09-28T14:09:22;3.33;;;3.20;;
239;SDS011;104;53.590;10.004;2022-09-28T14:11:56;3.73;;;3.53;;
239;SDS011;104;53.590;10.004;2022-09-28T14:14:28;5.97;;;3.60;;
239;SDS011;104;53.590;10.004;2022-09-28T14:20:18;4.10;;;3.50;;
239;SDS011;104;53.590;10.004;2022-09-28T14:25:58;6.43;;;3.50;;
239;SDS011;104;53.590;10.004;2022-09-28T14:28:42;6.27;;;3.60;;
239;SDS011;104;53.590;10.004;2022-09-28T14:31:20;4.13;;;3.93;;
239;SDS011;104;53.590;10.004;2022-09-28T14:33:56;3.90;;;3.17;;
239;SDS011;104;53.590;10.004;2022-09-28T14:36:26;5.73;;;3.80;;
239;SDS011;104;53.590;10.004;2022-09-28T14:39:18;7.03;;;3.90;;
239;SDS011;104;53.590;10.004;2022-09-28T14:42:08;6.00;;;3.27;;
239;SDS011;104;53.590;10.004;2022-09-28T14:54:13;7.10;;;5.67;;
239;SDS011;104;53.590;10.004;2022-09-28T14:56:44;3.83;;;3.60;;
239;SDS011;104;53.590;10.004;2022-09-28T14:59:22;6.40;;;3.50;;
239;SDS011;104;53.590;10.004;2022-09-28T15:01:51;4.73;;;3.97;;
239;SDS011;104;53.590;10.004;2022-09-28T15:04:25;5.20;;;3.70;;
239;SDS011;104;53.590;10.004;2022-09-28T15:06:54;4.90;;;3.60;;
239;SDS011;104;53.590;10.004;2022-09-28T15:09:26;3.70;;;3.47;;
239;SDS011;104;53.590;10.004;2022-09-28T15:11:57;4.10;;;3.03;;
239;SDS011;104;53.590;10.004;2022-09-28T15:14:25;3.57;;;3.30;;
239;SDS011;104;53.590;10.004;2022-09-28T15:16:56;4.60;;;3.33;;
239;SDS011;104;53.590;10.004;2022-09-28T15:19:25;4.13;;;3.73;;
239;SDS011;104;53.590;10.004;2022-09-28T15:21:58;7.03;;;3.57;;
239;SDS011;104;53.590;10.004;2022-09-28T15:24:27;5.30;;;3.40;;
239;SDS011;104;53.590;10.004;2022-09-28T15:26:59;5.23;;;3.60;;
239;SDS011;104;53.590;10.004;2022-09-28T15:29:27;11.33;;;3.53;;
239;SDS011;104;53.590;10.004;2022-09-28T15:31:57;4.00;;;3.53;;
239;SDS011;104;53.590;10.004;2022-09-28T15:34:25;3.83;;;3.23;;
239;SDS011;104;53.590;10.004;2022-09-28T15:37:11;3.93;;;3.33;;
239;SDS011;104;53.590;10.004;2022-09-28T15:39:41;5.40;;;3.50;;
239;SDS011;104;53.590;10.004;2022-09-28T15:42:12;6.73;;;3.83;;
239;SDS011;104;53.590;10.004;2022-09-28T15:44:40;4.40;;;4.03;;
239;SDS011;104;53.590;10.004;2022-09-28T15:47:12;6.60;;;3.40;;
239;SDS011;104;53.590;10.004;2022-09-28T15:49:42;3.60;;;3.40;;
239;SDS011;104;53.590;10.004;2022-09-28T15:52:20;5.70;;;3.87;;
239;SDS011;104;53.590;10.004;2022-09-28T15:54:53;9.73;;;4.77;;
239;SDS011;104;53.590;10.004;2022-09-28T15:57:28;6.23;;;3.93;;
239;SDS011;104;53.590;10.004;2022-09-28T16:00:02;5.07;;;3.70;;
239;SDS011;104;53.590;10.004;2022-09-28T16:02:31;5.37;;;3.80;;
239;SDS011;104;53.590;10.004;2022-09-28T16:04:58;4.20;;;3.53;;
239;SDS011;104;53.590;10.004;2022-09-28T16:07:29;6.57;;;4.50;;
239;SDS011;104;53.590;10.004;2022-09-28T16:12:51;6.17;;;3.90;;
239;SDS011;104;53.590;10.004;2022-09-28T16:15:21;4.30;;;4.00;;
239;SDS011;104;53.590;10.004;2022-09-28T16:17:53;8.10;;;3.93;;
239;SDS011;104;53.590;10.004;2022-09-28T16:20:24;7.40;;;4.37;;
239;SDS011;104;53.590;10.004;2022-09-28T16:22:54;7.50;;;4.60;;
239;SDS011;104;53.590;10.004;2022-09-28T16:25:24;8.30;;;5.10;;
239;SDS011;104;53.590;10.004;2022-09-28T16:27:54;5.07;;;4.43;;
239;SDS011;104;53.590;10.004;2022-09-28T16:30:22;14.03;;;4.70;;
239;SDS011;104;53.590;10.004;2022-09-28T16:32:50;7.87;;;4.40;;
239;SDS011;104;53.590;10.004;2022-09-28T16:35:23;13.53;;;4.60;;
239;SDS011;104;53.590;10.004;2022-09-28T16:37:54;13.13;;;4.70;;
239;SDS011;104;53.590;10.004;2022-09-28T16:40:24;5.83;;;4.17;;
239;SDS011;104;53.590;10.004;2022-09-28T16:42:52;7.00;;;4.70;;
239;SDS011;104;53.590;10.004;2022-09-28T16:45:22;9.80;;;5.13;;